Hovedside
METAR-TAF:

METAR-TAF

Lufthavner :

Aberdeen lufthavn

Aberdeen, Skottland

breddegrad: 57-12N, lengdegrad: 002-13W, høyde over havet: 65 m

Gjeldene værobservasjon

Denne rapporten ble laget for 33 minutter siden, klokken 18:20 UTC
Vind 5 kt fra Vest
Temperatur 1°C
Luftfuktighet 86%
Trykk 988 hPa
Sikt 10 km eller mer

METAR: EGPD 251820Z AUTO 27005KT 9999 NCD 01/M01 Q0988 NOSIG

Tid: 18:53 (18:53 UTC)

Varsel

Denne rapporten ble laget for 1 time og 57 minutter siden, klokken 16:56 UTC
Varsel gyldig fra 25. klokken 18 UTC til 26. klokken 18 UTC
Vind 7 kt fra Vest
Sikt 10 km eller mer
Spredte skyer i en høyde av 2000 ft
Sannsynlighet 40% :
Midlertidig
fra 26. klokken 09 UTC til 26. klokken 15 UTC
Vind 15 kt fra Vest med vindkast opp mot 25 kt

TAF: EGPD 251656Z 2518/2618 27007KT 9999 SCT020 PROB40 TEMPO 2609/2615 28015G25KT

Værobservasjoner og værvarsel for over 4000 flyplasser (METAR- og TAF-rapporter).

Tilgjengelige stasjoner er representert av de røde og gule prikkene på kartet.

Hold musepekeren over prikken for å se navnet på stasjonen.

Klikk så for å se værobservasjoner og -varsler.

For å forandre kartet kan du klikke på den grønne knappen med svart kryss for å zoome inn, på den grønne knappen med strek for å zoome ut, eller på de grønne pilene for å se tilstøtende kart.


METAR-TAF: